SAS1647 EKCH-EDDH
Flight info
| Callsign | SAS1647 |
|---|---|
| Flight time | 0h 35m |
| Altitude | 24000 |
| Route | NEXEN T503 MICOS/N0429F280 N850 BOGMU BOGMU5A |
| Aircraft | A321/M-SDE3FGHIRWY/LB1 |
Departure
| Time | 2026-05-07 22:25 |
|---|---|
| Airport | Copenhagen Kastrup Airport (EKCH) |
Arrival
| Time | 2026-05-07 23:01 |
|---|---|
| Airport | Hamburg Helmut Schmidt Airport (EDDH) |
| Time | Latitude | Longitude | Altitude | Speed | Heading |
|---|---|---|---|---|---|
| 2026-05-07 21:55 | 55.62734 | 12.65185 | 21 ft | 0 kts | 359° |
| 2026-05-07 22:12 | 55.62718 | 12.65184 | 20 ft | 4 kts | 7° |
| 2026-05-07 22:13 | 55.62697 | 12.65183 | 22 ft | 4 kts | 351° |
| 2026-05-07 22:13 | 55.62672 | 12.65197 | 22 ft | 4 kts | 320° |
| 2026-05-07 22:13 | 55.62658 | 12.65232 | 19 ft | 4 kts | 284° |
| 2026-05-07 22:13 | 55.62655 | 12.65268 | 19 ft | 4 kts | 280° |
| 2026-05-07 22:14 | 55.62645 | 12.65305 | 21 ft | 4 kts | 329° |
| 2026-05-07 22:14 | 55.62620 | 12.65319 | 21 ft | 4 kts | 357° |
| 2026-05-07 22:14 | 55.62595 | 12.65320 | 23 ft | 4 kts | 359° |
| 2026-05-07 22:14 | 55.62568 | 12.65321 | 22 ft | 4 kts | 359° |
| 2026-05-07 22:15 | 55.62564 | 12.65321 | 22 ft | 1 kts | 359° |
| 2026-05-07 22:17 | 55.62567 | 12.65321 | 22 ft | 3 kts | 359° |
| 2026-05-07 22:17 | 55.62674 | 12.65284 | 19 ft | 11 kts | 296° |
| 2026-05-07 22:18 | 55.62633 | 12.65178 | 20 ft | 11 kts | 212° |
| 2026-05-07 22:18 | 55.62463 | 12.65186 | 20 ft | 17 kts | 184° |
| 2026-05-07 22:18 | 55.62344 | 12.65189 | 22 ft | 17 kts | 168° |
| 2026-05-07 22:19 | 55.62225 | 12.65190 | 23 ft | 17 kts | 194° |
| 2026-05-07 22:19 | 55.62131 | 12.65109 | 24 ft | 18 kts | 215° |
| 2026-05-07 22:19 | 55.62025 | 12.64961 | 20 ft | 20 kts | 213° |
| 2026-05-07 22:19 | 55.61897 | 12.64814 | 17 ft | 24 kts | 212° |
| 2026-05-07 22:20 | 55.61767 | 12.64665 | 23 ft | 22 kts | 213° |
| 2026-05-07 22:20 | 55.61637 | 12.64516 | 25 ft | 22 kts | 214° |
| 2026-05-07 22:20 | 55.61505 | 12.64365 | 23 ft | 23 kts | 211° |
| 2026-05-07 22:20 | 55.61365 | 12.64207 | 22 ft | 25 kts | 213° |
| 2026-05-07 22:21 | 55.61212 | 12.64035 | 18 ft | 27 kts | 211° |
| 2026-05-07 22:21 | 55.61059 | 12.63853 | 22 ft | 27 kts | 213° |
| 2026-05-07 22:21 | 55.60905 | 12.63673 | 21 ft | 27 kts | 214° |
| 2026-05-07 22:21 | 55.60743 | 12.63496 | 21 ft | 28 kts | 214° |
| 2026-05-07 22:22 | 55.60578 | 12.63294 | 19 ft | 29 kts | 216° |
| 2026-05-07 22:22 | 55.60523 | 12.63224 | 20 ft | 0 kts | 213° |
| 2026-05-07 22:24 | 55.60496 | 12.63197 | 21 ft | 18 kts | 207° |
| 2026-05-07 22:24 | 55.60399 | 12.63137 | 22 ft | 1 kts | 176° |
| 2026-05-07 22:24 | 55.60384 | 12.63151 | 22 ft | 4 kts | 143° |
| 2026-05-07 22:24 | 55.60354 | 12.63332 | 25 ft | 14 kts | 73° |
| 2026-05-07 22:25 | 55.60489 | 12.63552 | 21 ft | 52 kts | 39° |
| 2026-05-07 22:25 | 55.60988 | 12.64325 | 46 ft | 128 kts | 40° |
| 2026-05-07 22:25 | 55.61688 | 12.65482 | 427 ft | 133 kts | 40° |
| 2026-05-07 22:25 | 55.62382 | 12.66956 | 836 ft | 173 kts | 41° |
| 2026-05-07 22:26 | 55.63344 | 12.68415 | 1676 ft | 195 kts | 40° |
| 2026-05-07 22:26 | 55.64454 | 12.70039 | 2498 ft | 219 kts | 39° |
| 2026-05-07 22:26 | 55.65701 | 12.71855 | 3314 ft | 244 kts | 39° |
| 2026-05-07 22:26 | 55.67054 | 12.73801 | 4392 ft | 255 kts | 39° |
| 2026-05-07 22:27 | 55.68442 | 12.75810 | 5590 ft | 261 kts | 39° |
| 2026-05-07 22:27 | 55.69860 | 12.77881 | 6738 ft | 266 kts | 40° |
| 2026-05-07 22:27 | 55.71126 | 12.80306 | 7750 ft | 272 kts | 58° |
| 2026-05-07 22:27 | 55.71784 | 12.83452 | 8734 ft | 277 kts | 83° |
| 2026-05-07 22:28 | 55.71596 | 12.86846 | 9680 ft | 283 kts | 110° |
| 2026-05-07 22:28 | 55.70535 | 12.89791 | 10547 ft | 288 kts | 137° |
| 2026-05-07 22:28 | 55.68815 | 12.91585 | 11337 ft | 292 kts | 165° |
| 2026-05-07 22:28 | 55.66785 | 12.91795 | 12130 ft | 295 kts | 192° |
| 2026-05-07 22:29 | 55.64926 | 12.90319 | 12924 ft | 298 kts | 219° |
| 2026-05-07 22:29 | 55.63349 | 12.87909 | 13755 ft | 300 kts | 222° |
| 2026-05-07 22:29 | 55.61780 | 12.85447 | 14515 ft | 303 kts | 222° |
| 2026-05-07 22:29 | 55.60196 | 12.82965 | 15228 ft | 305 kts | 222° |
| 2026-05-07 22:30 | 55.58598 | 12.80472 | 15938 ft | 308 kts | 222° |
| 2026-05-07 22:30 | 55.56983 | 12.77962 | 16655 ft | 311 kts | 222° |
| 2026-05-07 22:30 | 55.55350 | 12.75441 | 17358 ft | 313 kts | 222° |
| 2026-05-07 22:30 | 55.53675 | 12.72861 | 17701 ft | 329 kts | 222° |
| 2026-05-07 22:31 | 55.51906 | 12.70129 | 17847 ft | 348 kts | 222° |
| 2026-05-07 22:31 | 55.50042 | 12.67250 | 18134 ft | 362 kts | 222° |
| 2026-05-07 22:31 | 55.48127 | 12.64311 | 18664 ft | 367 kts | 221° |
| 2026-05-07 22:31 | 55.46187 | 12.61346 | 19230 ft | 371 kts | 221° |
| 2026-05-07 22:32 | 55.44230 | 12.58356 | 19796 ft | 374 kts | 221° |
| 2026-05-07 22:32 | 55.42262 | 12.55345 | 20356 ft | 376 kts | 221° |
| 2026-05-07 22:32 | 55.40273 | 12.52306 | 20894 ft | 379 kts | 221° |
| 2026-05-07 22:32 | 55.38272 | 12.49255 | 21386 ft | 382 kts | 221° |
| 2026-05-07 22:33 | 55.36261 | 12.46184 | 21866 ft | 385 kts | 221° |
| 2026-05-07 22:33 | 55.34230 | 12.43084 | 22326 ft | 387 kts | 221° |
| 2026-05-07 22:33 | 55.32189 | 12.39973 | 22747 ft | 390 kts | 221° |
| 2026-05-07 22:33 | 55.30130 | 12.36844 | 23189 ft | 393 kts | 221° |
| 2026-05-07 22:34 | 55.28060 | 12.33703 | 23607 ft | 395 kts | 221° |
| 2026-05-07 22:34 | 55.25975 | 12.30548 | 23984 ft | 398 kts | 221° |
| 2026-05-07 22:34 | 55.23862 | 12.27352 | 24153 ft | 406 kts | 221° |
| 2026-05-07 22:34 | 55.21691 | 12.24076 | 24184 ft | 417 kts | 221° |
| 2026-05-07 22:35 | 55.19456 | 12.20709 | 24188 ft | 429 kts | 221° |
| 2026-05-07 22:35 | 55.17163 | 12.17262 | 24184 ft | 440 kts | 221° |
| 2026-05-07 22:35 | 55.14818 | 12.13735 | 24183 ft | 450 kts | 221° |
| 2026-05-07 22:35 | 55.12424 | 12.10138 | 24182 ft | 459 kts | 221° |
| 2026-05-07 22:36 | 55.09978 | 12.06472 | 24184 ft | 466 kts | 221° |
| 2026-05-07 22:36 | 55.07500 | 12.02771 | 24180 ft | 471 kts | 221° |
| 2026-05-07 22:36 | 55.05059 | 11.98922 | 24192 ft | 476 kts | 228° |
| 2026-05-07 22:36 | 55.03008 | 11.94378 | 24181 ft | 480 kts | 231° |
| 2026-05-07 22:37 | 55.00667 | 11.90197 | 24201 ft | 484 kts | 221° |
| 2026-05-07 22:37 | 54.98157 | 11.86340 | 24636 ft | 477 kts | 222° |
| 2026-05-07 22:37 | 54.95669 | 11.82562 | 24848 ft | 477 kts | 218° |
| 2026-05-07 22:37 | 54.92943 | 11.79211 | 24886 ft | 481 kts | 213° |
| 2026-05-07 22:38 | 54.90113 | 11.76046 | 24611 ft | 492 kts | 213° |
| 2026-05-07 22:38 | 54.87298 | 11.72891 | 24419 ft | 472 kts | 214° |
| 2026-05-07 22:38 | 54.84720 | 11.69646 | 24169 ft | 445 kts | 218° |
| 2026-05-07 22:38 | 54.82319 | 11.66193 | 24179 ft | 452 kts | 221° |
| 2026-05-07 22:39 | 54.79957 | 11.62539 | 24184 ft | 459 kts | 223° |
| 2026-05-07 22:39 | 54.77586 | 11.58800 | 24180 ft | 461 kts | 223° |
| 2026-05-07 22:39 | 54.75196 | 11.55087 | 24184 ft | 462 kts | 221° |
| 2026-05-07 22:39 | 54.72745 | 11.51384 | 24180 ft | 462 kts | 221° |
| 2026-05-07 22:40 | 54.70321 | 11.47817 | 24183 ft | 462 kts | 220° |
| 2026-05-07 22:40 | 54.67822 | 11.44205 | 24179 ft | 462 kts | 220° |
| 2026-05-07 22:40 | 54.65347 | 11.40650 | 24181 ft | 462 kts | 220° |
| 2026-05-07 22:40 | 54.62879 | 11.37107 | 24180 ft | 462 kts | 220° |
| 2026-05-07 22:41 | 54.60441 | 11.33598 | 24183 ft | 462 kts | 220° |
| 2026-05-07 22:41 | 54.57942 | 11.29999 | 24181 ft | 462 kts | 220° |
| 2026-05-07 22:41 | 54.55473 | 11.26438 | 24181 ft | 462 kts | 220° |
| 2026-05-07 22:41 | 54.53009 | 11.22885 | 24178 ft | 462 kts | 220° |
| 2026-05-07 22:42 | 54.50576 | 11.19384 | 24180 ft | 462 kts | 220° |
| 2026-05-07 22:42 | 54.48080 | 11.15799 | 24179 ft | 462 kts | 220° |
| 2026-05-07 22:42 | 54.45618 | 11.12268 | 24177 ft | 462 kts | 220° |
| 2026-05-07 22:42 | 54.43156 | 11.08738 | 24175 ft | 462 kts | 220° |
| 2026-05-07 22:43 | 54.40682 | 11.05204 | 24076 ft | 460 kts | 220° |
| 2026-05-07 22:43 | 54.38242 | 11.01727 | 23032 ft | 457 kts | 220° |
| 2026-05-07 22:43 | 54.35782 | 10.98230 | 21615 ft | 460 kts | 220° |
| 2026-05-07 22:43 | 54.33326 | 10.94738 | 20546 ft | 453 kts | 220° |
| 2026-05-07 22:44 | 54.30946 | 10.91359 | 19028 ft | 439 kts | 220° |
| 2026-05-07 22:44 | 54.28618 | 10.88059 | 18532 ft | 427 kts | 220° |
| 2026-05-07 22:44 | 54.26430 | 10.84958 | 18074 ft | 391 kts | 220° |
| 2026-05-07 22:44 | 54.24413 | 10.82103 | 17639 ft | 366 kts | 220° |
| 2026-05-07 22:45 | 54.22506 | 10.79411 | 17193 ft | 358 kts | 220° |
| 2026-05-07 22:45 | 54.20568 | 10.76679 | 16738 ft | 351 kts | 220° |
| 2026-05-07 22:45 | 54.18741 | 10.73969 | 16299 ft | 345 kts | 225° |
| 2026-05-07 22:45 | 54.17168 | 10.70905 | 15865 ft | 341 kts | 233° |
| 2026-05-07 22:46 | 54.15726 | 10.67702 | 15435 ft | 339 kts | 232° |
| 2026-05-07 22:46 | 54.14286 | 10.64525 | 15018 ft | 338 kts | 232° |
| 2026-05-07 22:46 | 54.12851 | 10.61377 | 14604 ft | 336 kts | 232° |
| 2026-05-07 22:46 | 54.11418 | 10.58251 | 14197 ft | 334 kts | 232° |
| 2026-05-07 22:47 | 54.09990 | 10.55140 | 13765 ft | 332 kts | 232° |
| 2026-05-07 22:47 | 54.08569 | 10.52042 | 13303 ft | 331 kts | 232° |
| 2026-05-07 22:47 | 54.07155 | 10.48960 | 12852 ft | 330 kts | 232° |
| 2026-05-07 22:47 | 54.05746 | 10.45891 | 12410 ft | 328 kts | 232° |
| 2026-05-07 22:48 | 54.04818 | 10.43871 | 12116 ft | 327 kts | 232° |
| 2026-05-07 22:48 | 54.03415 | 10.40821 | 11680 ft | 326 kts | 232° |
| 2026-05-07 22:48 | 54.02021 | 10.37794 | 11258 ft | 325 kts | 232° |
| 2026-05-07 22:48 | 54.00644 | 10.34806 | 10835 ft | 323 kts | 232° |
| 2026-05-07 22:49 | 53.99333 | 10.31966 | 10437 ft | 322 kts | 232° |
| 2026-05-07 22:49 | 53.97997 | 10.28946 | 10021 ft | 320 kts | 239° |
| 2026-05-07 22:49 | 53.97044 | 10.25545 | 9564 ft | 319 kts | 250° |
| 2026-05-07 22:49 | 53.96636 | 10.21890 | 9108 ft | 314 kts | 271° |
| 2026-05-07 22:50 | 53.97007 | 10.18286 | 8661 ft | 309 kts | 291° |
| 2026-05-07 22:50 | 53.97787 | 10.14916 | 8224 ft | 305 kts | 293° |
| 2026-05-07 22:50 | 53.98565 | 10.11586 | 7793 ft | 302 kts | 293° |
| 2026-05-07 22:50 | 53.99334 | 10.08275 | 7357 ft | 300 kts | 292° |
| 2026-05-07 22:51 | 54.00099 | 10.04978 | 6934 ft | 298 kts | 293° |
| 2026-05-07 22:51 | 54.00855 | 10.01717 | 6503 ft | 296 kts | 293° |
| 2026-05-07 22:51 | 54.01534 | 9.98422 | 6057 ft | 295 kts | 283° |
| 2026-05-07 22:51 | 54.01577 | 9.94953 | 5619 ft | 295 kts | 259° |
| 2026-05-07 22:52 | 54.00832 | 9.91753 | 5277 ft | 287 kts | 235° |
| 2026-05-07 22:52 | 53.99508 | 9.89343 | 4680 ft | 275 kts | 212° |
| 2026-05-07 22:52 | 53.97820 | 9.87960 | 3954 ft | 267 kts | 195° |
| 2026-05-07 22:52 | 53.96059 | 9.86981 | 3246 ft | 264 kts | 195° |
| 2026-05-07 22:53 | 53.94326 | 9.86008 | 3030 ft | 263 kts | 195° |
| 2026-05-07 22:53 | 53.92586 | 9.85026 | 2983 ft | 264 kts | 195° |
| 2026-05-07 22:53 | 53.90835 | 9.84034 | 2989 ft | 265 kts | 195° |
| 2026-05-07 22:53 | 53.89086 | 9.83039 | 2990 ft | 265 kts | 195° |
| 2026-05-07 22:54 | 53.87318 | 9.82035 | 2991 ft | 265 kts | 195° |
| 2026-05-07 22:54 | 53.85565 | 9.81258 | 2988 ft | 262 kts | 180° |
| 2026-05-07 22:54 | 53.83794 | 9.81628 | 2988 ft | 255 kts | 156° |
| 2026-05-07 22:54 | 53.82204 | 9.82919 | 2986 ft | 250 kts | 149° |
| 2026-05-07 22:55 | 53.80751 | 9.84197 | 2993 ft | 213 kts | 149° |
| 2026-05-07 22:55 | 53.79503 | 9.85291 | 2983 ft | 195 kts | 148° |
| 2026-05-07 22:55 | 53.78338 | 9.86311 | 2980 ft | 188 kts | 148° |
| 2026-05-07 22:55 | 53.77183 | 9.87321 | 2876 ft | 186 kts | 148° |
| 2026-05-07 22:56 | 53.76032 | 9.88310 | 2687 ft | 185 kts | 149° |
| 2026-05-07 22:56 | 53.74868 | 9.89226 | 2427 ft | 184 kts | 150° |
| 2026-05-07 22:56 | 53.73740 | 9.90151 | 2172 ft | 175 kts | 150° |
| 2026-05-07 22:56 | 53.72673 | 9.90931 | 1934 ft | 157 kts | 149° |
| 2026-05-07 22:57 | 53.71765 | 9.91769 | 1691 ft | 143 kts | 144° |
| 2026-05-07 22:57 | 53.70915 | 9.92584 | 1568 ft | 139 kts | 146° |
| 2026-05-07 22:57 | 53.70069 | 9.93368 | 1428 ft | 137 kts | 142° |
| 2026-05-07 22:57 | 53.69224 | 9.94130 | 1397 ft | 139 kts | 149° |
| 2026-05-07 22:58 | 53.68381 | 9.94937 | 983 ft | 141 kts | 143° |
| 2026-05-07 22:58 | 53.67522 | 9.95753 | 636 ft | 138 kts | 152° |
| 2026-05-07 22:58 | 53.66815 | 9.96316 | 510 ft | 138 kts | 151° |
| 2026-05-07 22:59 | 53.66657 | 9.96446 | 550 ft | 137 kts | 150° |
| 2026-05-07 22:59 | 53.66540 | 9.96557 | 607 ft | 137 kts | 144° |
| 2026-05-07 22:59 | 53.66090 | 9.97020 | 523 ft | 148 kts | 150° |
| 2026-05-07 23:00 | 53.65141 | 9.97776 | 96 ft | 149 kts | 150° |
| 2026-05-07 23:00 | 53.64308 | 9.98518 | 49 ft | 124 kts | 154° |
| 2026-05-07 23:00 | 53.63622 | 9.99094 | 50 ft | 94 kts | 153° |
| 2026-05-07 23:00 | 53.63120 | 9.99522 | 50 ft | 69 kts | 154° |
| 2026-05-07 23:01 | 53.62757 | 9.99844 | 49 ft | 48 kts | 151° |
| 2026-05-07 23:01 | 53.62536 | 10.00045 | 47 ft | 12 kts | 146° |
| 2026-05-07 23:01 | 53.62532 | 10.00049 | 47 ft | 0 kts | 146° |
| 2026-05-07 23:02 | 53.62526 | 10.00062 | 47 ft | 10 kts | 124° |
| 2026-05-07 23:02 | 53.62547 | 10.00141 | 47 ft | 5 kts | 58° |
| 2026-05-07 23:02 | 53.62549 | 10.00147 | 47 ft | 2 kts | 59° |
| 2026-05-07 23:02 | 53.62621 | 10.00257 | 50 ft | 10 kts | 347° |
| 2026-05-07 23:03 | 53.62689 | 10.00206 | 50 ft | 12 kts | 331° |
| 2026-05-07 23:03 | 53.62739 | 10.00178 | 47 ft | 0 kts | 1° |
| 2026-05-07 23:03 | 53.62745 | 10.00185 | 50 ft | 2 kts | 34° |
| 2026-05-07 23:03 | 53.62749 | 10.00195 | 50 ft | 4 kts | 53° |
| 2026-05-07 23:04 | 53.62770 | 10.00268 | 48 ft | 0 kts | 63° |